Time;durP1;ratioP1;P1;durP2;ratioP2;P2;SDS_P1;SDS_P2;PMS_P1;PMS_P2;Temp;Humidity;BMP_temperature;BMP_pressure;BME280_temperature;BME280_humidity;BME280_pressure;Samples;Min_cycle;Max_cycle;Signal;HPM_P1;HPM_P2
2022/07/31 00:02:15;;;;;;;5.63;4.80;;;20.80;99.90;;;;;;5029416;28;20430;-58
2022/07/31 00:04:42;;;;;;;7.27;4.97;;;20.80;99.90;;;;;;5021164;28;20949;-47
2022/07/31 00:07:10;;;;;;;7.47;5.43;;;20.70;99.90;;;;;;5034727;28;20475;-54
2022/07/31 00:09:37;;;;;;;7.93;7.13;;;20.60;99.90;;;;;;5029631;28;20445;-57
2022/07/31 00:12:05;;;;;;;7.57;5.80;;;20.60;99.90;;;;;;5020857;28;20433;-43
2022/07/31 00:14:34;;;;;;;9.17;5.37;;;20.60;99.90;;;;;;5033904;28;20453;-45
2022/07/31 00:17:01;;;;;;;8.20;5.93;;;20.50;99.90;;;;;;5034299;28;20524;-53
2022/07/31 00:19:31;;;;;;;6.10;5.23;;;20.50;99.90;;;;;;5033716;27;20504;-45
2022/07/31 00:21:58;;;;;;;6.20;5.60;;;20.50;99.90;;;;;;5033559;28;20469;-53
2022/07/31 00:24:28;;;;;;;6.60;5.80;;;20.40;99.90;;;;;;5033235;28;20441;-47
2022/07/31 00:26:55;;;;;;;7.47;5.57;;;20.40;99.90;;;;;;5033101;28;20493;-53
2022/07/31 00:29:22;;;;;;;6.80;5.30;;;20.30;99.90;;;;;;5031868;28;20460;-45
2022/07/31 00:31:51;;;;;;;6.50;5.90;;;20.20;99.90;;;;;;5034222;28;20437;-44
2022/07/31 00:34:18;;;;;;;6.20;5.00;;;20.20;99.90;;;;;;5033582;28;20437;-48
2022/07/31 00:36:48;;;;;;;6.70;5.77;;;20.20;99.90;;;;;;5033152;27;20437;-49
2022/07/31 00:39:15;;;;;;;6.07;5.47;;;20.20;99.90;;;;;;5033547;28;20523;-51
2022/07/31 00:41:45;;;;;;;6.80;6.10;;;20.20;99.90;;;;;;5032652;28;20465;-51
2022/07/31 00:44:14;;;;;;;7.67;6.83;;;20.10;99.90;;;;;;5033401;28;20484;-47
2022/07/31 00:46:42;;;;;;;6.73;5.37;;;20.10;99.90;;;;;;5032833;28;20496;-53
2022/07/31 00:49:10;;;;;;;11.03;5.60;;;20.10;99.90;;;;;;5018397;28;20468;-54
2022/07/31 00:51:37;;;;;;;6.40;5.73;;;20.10;99.90;;;;;;5030999;28;20504;-45
2022/07/31 00:54:08;;;;;;;8.10;5.70;;;20.00;99.90;;;;;;5032351;28;20449;-47
2022/07/31 00:56:34;;;;;;;6.07;4.77;;;20.00;99.90;;;;;;5032917;28;20475;-51
2022/07/31 00:59:01;;;;;;;8.20;6.37;;;19.90;99.90;;;;;;5032662;28;20528;-55
2022/07/31 01:01:29;;;;;;;7.27;6.10;;;19.90;99.90;;;;;;5033064;28;20499;-47
2022/07/31 01:03:58;;;;;;;9.23;6.40;;;19.90;99.90;;;;;;5032873;28;20473;-46
2022/07/31 01:06:25;;;;;;;7.77;7.00;;;19.90;99.90;;;;;;5033488;28;20492;-54
2022/07/31 01:08:54;;;;;;;7.40;6.60;;;19.90;99.90;;;;;;5033009;28;20498;-52
2022/07/31 01:11:29;;;;;;;8.13;6.53;;;19.80;99.90;;;;;;5033009;28;20468;-50
2022/07/31 01:14:00;;;;;;;8.20;6.60;;;19.90;99.90;;;;;;5032955;28;20409;-51
2022/07/31 01:16:33;;;;;;;7.63;5.87;;;19.80;99.90;;;;;;5032592;28;20469;-48
2022/07/31 01:19:15;;;;;;;6.67;5.80;;;19.80;99.90;;;;;;5032421;28;20444;-48
2022/07/31 01:21:49;;;;;;;10.07;6.60;;;19.80;99.90;;;;;;5033036;28;20421;-53
2022/07/31 01:24:36;;;;;;;7.83;5.90;;;19.80;99.90;;;;;;5033232;28;20464;-46
2022/07/31 01:27:10;;;;;;;7.83;5.80;;;19.80;99.90;;;;;;5021745;28;20829;-54
2022/07/31 01:29:45;;;;;;;6.80;6.07;;;19.80;99.90;;;;;;5028108;28;20492;-44
2022/07/31 01:32:16;;;;;;;7.53;5.50;;;19.80;99.90;;;;;;5033196;28;20421;-49
2022/07/31 01:34:48;;;;;;;7.90;6.40;;;19.80;99.90;;;;;;5033112;28;20473;-40
2022/07/31 01:37:20;;;;;;;7.17;6.40;;;19.70;99.90;;;;;;5033055;28;20473;-48
2022/07/31 01:39:52;;;;;;;5.67;5.10;;;19.70;99.90;;;;;;5032967;28;20517;-44
2022/07/31 01:42:24;;;;;;;15.20;5.93;;;19.70;99.90;;;;;;5031976;28;20510;-48
2022/07/31 01:44:57;;;;;;;6.77;6.13;;;19.60;99.90;;;;;;5032879;28;20496;-49
2022/07/31 01:47:26;;;;;;;6.60;5.83;;;19.50;99.90;;;;;;5032414;28;20521;-46
2022/07/31 01:49:54;;;;;;;5.63;5.13;;;19.40;99.90;;;;;;5032909;28;20449;-49
2022/07/31 01:52:22;;;;;;;6.60;5.60;;;19.40;99.90;;;;;;5032462;28;20497;-53
2022/07/31 01:54:51;;;;;;;6.90;5.23;;;19.40;99.90;;;;;;5032847;28;20517;-51
2022/07/31 01:57:20;;;;;;;6.60;5.60;;;19.30;99.90;;;;;;5032283;28;20484;-41
2022/07/31 01:59:48;;;;;;;10.43;5.47;;;19.30;99.90;;;;;;5032481;28;20453;-44
2022/07/31 02:02:19;;;;;;;9.40;5.87;;;19.20;99.90;;;;;;5032431;28;20496;-52
2022/07/31 02:04:47;;;;;;;5.50;5.00;;;19.20;99.90;;;;;;5032399;28;20508;-54
2022/07/31 02:07:17;;;;;;;7.57;5.97;;;19.10;99.90;;;;;;5032328;28;20528;-53
2022/07/31 02:09:46;;;;;;;10.53;5.53;;;19.10;99.90;;;;;;5032851;28;20512;-52
2022/07/31 02:12:13;;;;;;;9.00;6.07;;;19.00;99.90;;;;;;5032275;28;20544;-42
2022/07/31 02:14:42;;;;;;;9.60;6.50;;;19.00;99.90;;;;;;5032290;28;20438;-51
2022/07/31 02:17:12;;;;;;;6.20;5.60;;;19.00;99.90;;;;;;5032963;28;20456;-47
2022/07/31 02:19:42;;;;;;;5.73;5.20;;;18.90;99.90;;;;;;5031900;28;20461;-49
2022/07/31 02:22:09;;;;;;;8.13;6.67;;;18.90;99.90;;;;;;5032063;28;20426;-36
2022/07/31 02:24:36;;;;;;;8.07;5.60;;;18.90;99.90;;;;;;5032609;28;20460;-48
2022/07/31 02:27:10;;;;;;;6.10;5.57;;;18.90;99.90;;;;;;5031950;28;20544;-45
2022/07/31 02:29:37;;;;;;;7.80;6.47;;;18.90;99.90;;;;;;5032110;28;20536;-45
2022/07/31 02:32:05;;;;;;;6.20;5.60;;;18.90;99.90;;;;;;5031942;28;20555;-50
2022/07/31 02:34:35;;;;;;;6.73;6.03;;;18.90;99.90;;;;;;5031684;28;20450;-45
2022/07/31 02:37:04;;;;;;;6.43;5.40;;;18.80;99.90;;;;;;5032116;28;20493;-46
2022/07/31 02:39:37;;;;;;;7.50;5.70;;;18.80;99.90;;;;;;5031763;28;20449;-46
2022/07/31 02:42:09;;;;;;;6.20;5.60;;;18.80;99.90;;;;;;5031757;28;20477;-47
2022/07/31 02:44:41;;;;;;;6.53;5.93;;;18.80;99.90;;;;;;5032628;28;20453;-46
2022/07/31 02:47:11;;;;;;;7.40;5.97;;;18.70;99.90;;;;;;5031835;28;20484;-53
2022/07/31 02:49:39;;;;;;;9.80;6.30;;;18.70;99.90;;;;;;5032216;28;20444;-50
2022/07/31 02:52:08;;;;;;;6.47;5.87;;;18.70;99.90;;;;;;5031490;28;20472;-53
2022/07/31 02:54:41;;;;;;;8.60;6.77;;;18.70;99.90;;;;;;5031525;28;20426;-49
2022/07/31 02:57:09;;;;;;;6.37;5.77;;;18.70;99.90;;;;;;5031487;28;20417;-51
2022/07/31 02:59:39;;;;;;;6.60;5.90;;;18.70;99.90;;;;;;5031243;28;20497;-45
2022/07/31 03:02:07;;;;;;;7.73;6.23;;;18.70;99.90;;;;;;5012317;28;20429;-57
2022/07/31 03:04:45;;;;;;;9.80;5.97;;;18.70;99.90;;;;;;5032689;28;20451;-49
2022/07/31 03:07:16;;;;;;;7.37;6.00;;;18.60;99.90;;;;;;5035624;28;20474;-49
2022/07/31 03:09:46;;;;;;;6.30;5.70;;;18.60;99.90;;;;;;5034839;28;20494;-45
2022/07/31 03:12:15;;;;;;;7.87;5.57;;;18.70;99.90;;;;;;5035228;28;20448;-44
2022/07/31 03:14:42;;;;;;;6.90;5.77;;;18.70;99.90;;;;;;5034939;28;20469;-57
2022/07/31 03:17:12;;;;;;;7.30;6.10;;;18.70;99.90;;;;;;5035491;28;20471;-48
2022/07/31 03:19:44;;;;;;;8.83;5.77;;;18.70;99.90;;;;;;5035738;28;20933;-45
2022/07/31 03:22:11;;;;;;;6.27;5.40;;;18.70;99.90;;;;;;5034709;28;20433;-50
2022/07/31 03:24:45;;;;;;;7.50;6.33;;;18.70;99.90;;;;;;5034419;28;20479;-53
2022/07/31 03:27:13;;;;;;;6.60;5.70;;;18.80;99.90;;;;;;5034403;28;20549;-42
2022/07/31 03:29:40;;;;;;;10.13;6.83;;;18.80;99.90;;;;;;5034146;28;20465;-50
2022/07/31 03:32:11;;;;;;;7.10;5.60;;;18.80;99.90;;;;;;5034579;28;20484;-48
2022/07/31 03:34:38;;;;;;;9.30;6.80;;;18.80;99.90;;;;;;5034124;28;20440;-52
2022/07/31 03:37:04;;;;;;;6.97;6.03;;;18.80;99.90;;;;;;5034548;28;20445;-49
2022/07/31 03:39:33;;;;;;;10.90;6.17;;;18.80;99.90;;;;;;5034519;28;20448;-49
2022/07/31 03:42:03;;;;;;;8.33;6.83;;;18.80;99.90;;;;;;5034423;28;20526;-48
2022/07/31 03:44:32;;;;;;;7.07;6.20;;;18.80;99.90;;;;;;5034332;28;20500;-55
2022/07/31 03:47:01;;;;;;;8.50;6.47;;;18.80;99.90;;;;;;5034041;28;20480;-45
2022/07/31 03:49:33;;;;;;;9.00;7.00;;;18.80;99.90;;;;;;5033717;28;20472;-54
2022/07/31 03:52:00;;;;;;;7.80;6.50;;;18.80;99.90;;;;;;5033484;28;20509;-46
2022/07/31 03:54:27;;;;;;;6.90;6.20;;;18.80;99.90;;;;;;5033857;28;20481;-52
2022/07/31 03:57:01;;;;;;;7.33;6.03;;;18.70;99.90;;;;;;5092249;22;20607;-56
2022/07/31 03:59:29;;;;;;;7.73;5.97;;;18.70;99.90;;;;;;5047479;28;20515;-53
2022/07/31 04:02:00;;;;;;;9.40;5.83;;;18.70;99.90;;;;;;5054716;28;20452;-50
2022/07/31 04:04:30;;;;;;;9.57;6.60;;;18.60;99.90;;;;;;5052901;28;20440;-43
2022/07/31 04:06:57;;;;;;;6.87;6.17;;;18.50;99.90;;;;;;5054394;28;20452;-52
2022/07/31 04:09:29;;;;;;;8.33;6.20;;;18.50;99.90;;;;;;5054113;28;20470;-50
2022/07/31 04:12:08;;;;;;;7.63;6.90;;;18.40;99.90;;;;;;5054541;28;20487;-45
2022/07/31 04:14:37;;;;;;;8.33;7.13;;;18.40;99.90;;;;;;5053828;28;20413;-45
2022/07/31 04:17:12;;;;;;;6.97;5.73;;;18.50;99.90;;;;;;5053481;28;20460;-57
2022/07/31 04:19:43;;;;;;;8.17;6.27;;;18.50;99.90;;;;;;5053983;28;20444;-50
2022/07/31 04:22:12;;;;;;;7.20;6.50;;;18.60;99.90;;;;;;5044488;28;20552;-53
2022/07/31 04:24:39;;;;;;;12.07;7.80;;;18.60;99.90;;;;;;5049600;28;21042;-58
2022/07/31 04:27:10;;;;;;;6.53;5.93;;;18.60;99.90;;;;;;5039857;28;20531;-50
2022/07/31 04:29:37;;;;;;;6.73;6.07;;;18.60;99.90;;;;;;5053290;28;20468;-43
2022/07/31 04:32:04;;;;;;;6.70;6.10;;;18.60;99.90;;;;;;5049364;28;20444;-57
2022/07/31 04:34:32;;;;;;;6.80;6.10;;;18.60;99.90;;;;;;5040884;28;20475;-49
2022/07/31 04:37:01;;;;;;;7.53;6.67;;;18.60;99.90;;;;;;5052846;28;20448;-57
2022/07/31 04:39:29;;;;;;;7.03;6.33;;;18.60;99.90;;;;;;5052982;28;20536;-55
2022/07/31 04:41:55;;;;;;;8.67;5.80;;;18.60;99.90;;;;;;5053003;28;20453;-51
2022/07/31 04:44:24;;;;;;;7.70;6.37;;;18.60;99.90;;;;;;5052310;28;20456;-54
2022/07/31 04:46:51;;;;;;;8.00;6.27;;;18.60;99.90;;;;;;5052684;28;20444;-49
2022/07/31 04:49:22;;;;;;;8.50;6.53;;;18.70;99.90;;;;;;5045726;28;20929;-54
2022/07/31 04:51:55;;;;;;;6.10;5.50;;;18.70;99.90;;;;;;5047391;28;20497;-56
2022/07/31 04:54:22;;;;;;;6.43;5.80;;;18.80;99.90;;;;;;5052812;28;20467;-53
2022/07/31 04:56:48;;;;;;;11.13;5.83;;;18.80;99.90;;;;;;5052784;28;20512;-50
2022/07/31 04:59:19;;;;;;;13.40;5.87;;;18.80;99.90;;;;;;5114099;27;20448;-56
2022/07/31 05:01:48;;;;;;;6.03;5.43;;;18.90;99.90;;;;;;5143529;27;20489;-46
2022/07/31 05:04:15;;;;;;;6.40;5.60;;;18.90;99.90;;;;;;5157847;27;20448;-55
2022/07/31 05:06:48;;;;;;;7.77;6.97;;;19.00;99.90;;;;;;5157684;27;20452;-48
2022/07/31 05:09:18;;;;;;;6.73;5.90;;;19.00;99.90;;;;;;5157052;27;20543;-52
2022/07/31 05:11:47;;;;;;;6.50;5.90;;;19.10;99.90;;;;;;5156605;27;20450;-52
2022/07/31 05:14:21;;;;;;;9.03;6.43;;;19.10;99.90;;;;;;5152101;27;20907;-58
2022/07/31 05:16:52;;;;;;;6.43;5.77;;;19.20;99.90;;;;;;5150275;27;20435;-53
2022/07/31 05:19:29;;;;;;;7.83;7.03;;;19.30;99.90;;;;;;5140468;27;20464;-50
2022/07/31 05:21:58;;;;;;;6.73;5.67;;;19.40;99.90;;;;;;5156829;27;20428;-46
2022/07/31 05:24:25;;;;;;;7.57;6.10;;;19.50;99.90;;;;;;5156663;27;20460;-48
2022/07/31 05:26:52;;;;;;;11.87;6.50;;;19.50;99.90;;;;;;5155591;27;20439;-49
2022/07/31 05:29:20;;;;;;;8.07;6.30;;;19.60;99.90;;;;;;5156733;27;20490;-54
2022/07/31 05:31:47;;;;;;;7.53;5.80;;;19.70;99.90;;;;;;5156042;27;20475;-50
2022/07/31 05:34:18;;;;;;;6.83;6.13;;;19.80;99.90;;;;;;5156352;27;20531;-49
2022/07/31 05:36:48;;;;;;;7.63;5.97;;;19.90;99.90;;;;;;5156313;27;20472;-53
2022/07/31 05:39:18;;;;;;;7.03;6.33;;;19.90;99.90;;;;;;5156671;27;20428;-53
2022/07/31 05:41:47;;;;;;;7.33;6.30;;;20.00;99.90;;;;;;5155568;27;20463;-51
2022/07/31 05:44:14;;;;;;;8.63;6.63;;;20.00;99.90;;;;;;5156133;27;20439;-54
2022/07/31 05:46:47;;;;;;;8.30;6.50;;;20.10;99.90;;;;;;5144178;27;20463;-57
2022/07/31 05:49:18;;;;;;;7.70;7.00;;;20.10;99.90;;;;;;5147938;28;21152;-59
2022/07/31 05:51:46;;;;;;;8.80;6.30;;;20.20;99.90;;;;;;5147270;28;20464;-56
2022/07/31 05:54:13;;;;;;;7.50;6.30;;;20.30;99.90;;;;;;5155945;28;20469;-47
2022/07/31 05:56:43;;;;;;;6.90;6.30;;;20.30;99.90;;;;;;5156194;28;20444;-47
2022/07/31 05:59:10;;;;;;;6.40;5.63;;;20.40;99.90;;;;;;5148223;28;20435;-59
2022/07/31 06:01:38;;;;;;;7.27;6.47;;;20.50;99.90;;;;;;5146322;28;20436;-49
2022/07/31 06:04:05;;;;;;;9.17;5.87;;;20.50;99.90;;;;;;5156555;28;20436;-51
2022/07/31 06:06:33;;;;;;;7.17;6.50;;;20.60;99.90;;;;;;5156246;27;20472;-53
2022/07/31 06:09:00;;;;;;;10.23;6.50;;;20.70;99.90;;;;;;5156231;28;20491;-56
2022/07/31 06:11:27;;;;;;;8.87;7.90;;;20.70;99.90;;;;;;5156462;28;20436;-43
2022/07/31 06:13:54;;;;;;;6.93;6.00;;;20.80;99.90;;;;;;5148719;28;20503;-58
2022/07/31 06:16:23;;;;;;;6.50;5.90;;;20.90;99.90;;;;;;5150071;28;20450;-57
2022/07/31 06:18:55;;;;;;;9.50;6.83;;;20.90;99.90;;;;;;5142352;28;20472;-51
2022/07/31 06:21:22;;;;;;;6.10;5.60;;;21.00;99.90;;;;;;5157327;28;20428;-59
2022/07/31 06:23:50;;;;;;;7.50;5.90;;;21.00;99.90;;;;;;5157512;28;20446;-56
2022/07/31 06:26:17;;;;;;;7.30;5.57;;;21.10;99.90;;;;;;5157072;27;20460;-54
2022/07/31 06:28:46;;;;;;;6.77;5.90;;;21.20;99.90;;;;;;5157413;28;20482;-58
2022/07/31 06:31:17;;;;;;;7.73;5.40;;;21.20;99.90;;;;;;5156836;28;20526;-50
2022/07/31 06:33:44;;;;;;;6.63;5.93;;;21.30;99.90;;;;;;5156665;27;20419;-51
2022/07/31 06:36:10;;;;;;;5.33;4.93;;;21.30;99.90;;;;;;5141622;28;20511;-57
2022/07/31 06:38:37;;;;;;;7.60;6.90;;;21.30;99.90;;;;;;5159164;27;20456;-49
2022/07/31 06:41:05;;;;;;;6.80;6.07;;;21.30;99.90;;;;;;5158173;27;20490;-58
2022/07/31 06:43:33;;;;;;;6.67;5.40;;;21.40;99.90;;;;;;5145096;27;20463;-49
2022/07/31 06:46:00;;;;;;;7.50;5.60;;;21.40;99.90;;;;;;5159146;27;20433;-54
2022/07/31 06:48:29;;;;;;;8.77;6.60;;;21.50;99.90;;;;;;5160101;27;20521;-52
2022/07/31 06:50:56;;;;;;;5.70;4.83;;;21.50;99.90;;;;;;5159705;27;20436;-51
2022/07/31 06:53:23;;;;;;;5.20;4.70;;;21.60;99.90;;;;;;5159280;27;20498;-51
2022/07/31 06:55:49;;;;;;;5.43;4.93;;;21.70;99.90;;;;;;5155151;27;20494;-34
2022/07/31 06:58:18;;;;;;;5.20;4.70;;;21.80;99.90;;;;;;5053057;28;20444;-50
2022/07/31 07:00:44;;;;;;;4.93;4.43;;;21.90;99.90;;;;;;5042022;28;20433;-56
2022/07/31 07:03:11;;;;;;;6.03;5.10;;;22.00;99.90;;;;;;5046175;28;20973;-53
2022/07/31 07:05:38;;;;;;;5.27;4.87;;;22.10;99.90;;;;;;5077019;28;20452;-55
2022/07/31 07:08:05;;;;;;;5.53;4.80;;;22.10;99.90;;;;;;5050740;28;20501;-57
2022/07/31 07:10:32;;;;;;;6.10;4.10;;;22.20;99.90;;;;;;5040276;28;20472;-57
2022/07/31 07:12:59;;;;;;;7.20;4.70;;;22.20;99.90;;;;;;5043588;28;20470;-56
2022/07/31 07:15:30;;;;;;;7.93;4.43;;;22.30;99.90;;;;;;5043628;28;20563;-53
2022/07/31 07:17:59;;;;;;;5.30;4.57;;;22.30;99.90;;;;;;5045177;28;20431;-51
2022/07/31 07:20:26;;;;;;;5.87;4.97;;;22.40;99.90;;;;;;5043727;28;20555;-58
2022/07/31 07:22:53;;;;;;;4.50;3.97;;;22.40;99.90;;;;;;5040661;28;20469;-54
2022/07/31 07:25:20;;;;;;;11.93;4.50;;;22.50;99.90;;;;;;5043144;28;20448;-60
2022/07/31 07:27:47;;;;;;;4.33;4.03;;;23.10;99.90;;;;;;5040374;28;20448;-53
2022/07/31 07:30:14;;;;;;;5.33;4.27;;;24.50;99.90;;;;;;5043084;28;20511;-58
2022/07/31 07:32:42;;;;;;;4.03;3.60;;;26.10;99.90;;;;;;5047789;28;20458;-57
2022/07/31 07:35:11;;;;;;;4.77;3.87;;;27.40;99.90;;;;;;5044710;28;20445;-59
2022/07/31 07:37:39;;;;;;;4.90;4.17;;;28.30;96.40;;;;;;5039565;28;20475;-58
2022/07/31 07:40:08;;;;;;;5.13;4.47;;;28.60;94.00;;;;;;5038508;28;20445;-59
2022/07/31 07:42:34;;;;;;;7.10;4.70;;;28.30;92.10;;;;;;5037511;28;20490;-58
2022/07/31 07:45:01;;;;;;;5.07;4.67;;;27.70;92.40;;;;;;5041934;28;20448;-58
2022/07/31 07:47:28;;;;;;;5.27;4.87;;;27.20;94.10;;;;;;5045108;28;20472;-58
2022/07/31 07:49:56;;;;;;;5.30;4.80;;;27.40;94.20;;;;;;5036281;28;20512;-53
2022/07/31 07:52:23;;;;;;;7.13;4.27;;;28.50;93.20;;;;;;5044672;28;20464;-53
2022/07/31 07:54:50;;;;;;;5.30;4.83;;;29.80;88.90;;;;;;5039480;28;20492;-59
2022/07/31 07:57:20;;;;;;;4.70;4.30;;;30.80;82.30;;;;;;5038072;28;20495;-61
2022/07/31 07:59:49;;;;;;;4.83;4.17;;;32.00;77.20;;;;;;5041607;28;20427;-57
2022/07/31 08:02:16;;;;;;;4.50;4.10;;;33.20;70.50;;;;;;5038349;28;20535;-59
2022/07/31 08:04:43;;;;;;;5.93;3.93;;;33.40;65.90;;;;;;5045475;28;20515;-61
2022/07/31 08:07:11;;;;;;;5.17;4.67;;;34.20;61.90;;;;;;5045069;28;20551;-59
2022/07/31 08:09:39;;;;;;;5.13;4.73;;;34.70;59.00;;;;;;5044650;28;20472;-59
2022/07/31 08:12:06;;;;;;;4.53;4.13;;;34.80;57.50;;;;;;5041178;28;20504;-58
2022/07/31 08:14:33;;;;;;;4.30;4.00;;;35.20;55.90;;;;;;5044146;28;20544;-57
2022/07/31 08:17:00;;;;;;;4.17;3.87;;;35.20;55.40;;;;;;5040761;28;20828;-58
2022/07/31 08:19:27;;;;;;;7.50;4.60;;;35.40;54.70;;;;;;5041500;28;20503;-58
2022/07/31 08:21:54;;;;;;;5.63;5.13;;;35.70;53.30;;;;;;5036721;28;20461;-58
2022/07/31 08:24:22;;;;;;;4.13;3.70;;;35.80;52.70;;;;;;5043777;28;20564;-58
2022/07/31 08:29:33;;;;;;;5.27;4.60;;;35.90;52.20;;;;;;5041952;28;20560;-57
2022/07/31 08:32:00;;;;;;;6.60;4.10;;;36.10;52.20;;;;;;5038610;28;20449;-64
2022/07/31 08:34:27;;;;;;;4.00;3.60;;;36.50;51.50;;;;;;5042121;28;20468;-55
2022/07/31 08:36:54;;;;;;;5.13;4.40;;;36.60;50.40;;;;;;5041521;28;20897;-57
2022/07/31 08:39:23;;;;;;;5.00;4.60;;;36.50;50.10;;;;;;5037611;28;20563;-58
2022/07/31 08:41:49;;;;;;;4.63;4.23;;;36.30;50.10;;;;;;5037860;28;20444;-56
2022/07/31 08:44:16;;;;;;;5.50;3.77;;;36.20;50.80;;;;;;5044342;28;20476;-55
2022/07/31 08:46:46;;;;;;;3.90;3.60;;;36.50;50.60;;;;;;5040388;28;20500;-55
2022/07/31 08:49:16;;;;;;;4.40;4.00;;;36.40;50.30;;;;;;5034880;28;20662;-53
2022/07/31 08:51:44;;;;;;;3.67;3.37;;;36.60;50.40;;;;;;5039966;28;20528;-56
2022/07/31 08:54:11;;;;;;;4.40;3.70;;;37.00;49.20;;;;;;5036045;28;20454;-55
2022/07/31 08:56:40;;;;;;;4.27;3.23;;;36.90;47.90;;;;;;5037039;28;20490;-53
2022/07/31 08:59:07;;;;;;;3.47;3.27;;;36.50;48.50;;;;;;5046165;27;20455;-55
2022/07/31 09:01:35;;;;;;;6.77;3.63;;;36.50;48.60;;;;;;5141472;27;20459;-52
2022/07/31 09:04:03;;;;;;;4.80;3.70;;;36.80;47.90;;;;;;5140459;27;20463;-52
2022/07/31 09:06:30;;;;;;;4.40;4.00;;;36.80;47.90;;;;;;5148918;27;20463;-52
2022/07/31 09:08:57;;;;;;;6.40;3.93;;;37.00;47.60;;;;;;5145621;27;20466;-56
2022/07/31 09:11:24;;;;;;;3.90;3.60;;;37.30;47.00;;;;;;5139648;27;20443;-57
2022/07/31 09:13:56;;;;;;;5.33;3.87;;;37.10;47.30;;;;;;5138943;27;20983;-54
2022/07/31 09:16:24;;;;;;;3.83;3.50;;;37.00;47.60;;;;;;5146459;27;20451;-56
2022/07/31 09:18:58;;;;;;;4.00;3.67;;;37.10;47.50;;;;;;5143036;27;20550;-58
2022/07/31 09:21:26;;;;;;;4.27;3.73;;;37.20;47.20;;;;;;5146142;27;20431;-52
2022/07/31 09:23:54;;;;;;;4.00;3.60;;;37.30;47.40;;;;;;5145791;27;20483;-56
2022/07/31 09:26:32;;;;;;;4.30;4.00;;;37.20;46.80;;;;;;5071313;27;20428;-59
2022/07/31 09:29:02;;;;;;;3.80;3.30;;;37.30;47.10;;;;;;5044657;28;20460;-54
2022/07/31 09:31:33;;;;;;;4.30;3.90;;;37.50;46.30;;;;;;5034576;28;20464;-55
2022/07/31 09:34:00;;;;;;;6.57;4.53;;;37.60;46.30;;;;;;5038023;28;20793;-53
2022/07/31 09:36:27;;;;;;;4.83;4.00;;;37.60;45.70;;;;;;5044182;28;20466;-58
2022/07/31 09:38:56;;;;;;;5.37;3.80;;;37.40;46.10;;;;;;5035344;28;20467;-57
2022/07/31 09:41:23;;;;;;;4.23;3.87;;;37.60;46.00;;;;;;5048003;28;20785;-53
2022/07/31 09:43:54;;;;;;;4.57;3.40;;;37.70;45.20;;;;;;5041413;28;20428;-57
2022/07/31 09:46:23;;;;;;;6.03;3.90;;;37.80;44.50;;;;;;5043664;28;20527;-56
2022/07/31 09:48:51;;;;;;;4.70;4.30;;;38.00;44.50;;;;;;5039733;28;20476;-45
2022/07/31 09:51:18;;;;;;;4.00;3.70;;;37.90;44.80;;;;;;5035675;28;20451;-57
2022/07/31 09:53:46;;;;;;;4.00;3.47;;;38.10;44.50;;;;;;5043526;28;20473;-55
2022/07/31 09:56:14;;;;;;;4.43;4.03;;;38.00;44.50;;;;;;5036677;28;20491;-57
2022/07/31 09:58:41;;;;;;;4.37;3.97;;;38.20;44.50;;;;;;5042073;28;20444;-52
2022/07/31 10:01:10;;;;;;;4.30;3.90;;;38.10;44.00;;;;;;5037423;28;20439;-54
2022/07/31 10:03:39;;;;;;;5.00;3.60;;;38.00;44.40;;;;;;5038915;28;20483;-57
2022/07/31 10:06:08;;;;;;;4.30;3.90;;;37.80;44.50;;;;;;5040114;28;20463;-55
2022/07/31 10:08:36;;;;;;;3.33;3.13;;;37.80;45.20;;;;;;5036871;28;20936;-57
2022/07/31 10:11:05;;;;;;;3.93;3.63;;;37.50;45.10;;;;;;5039824;28;20606;-55
2022/07/31 10:13:36;;;;;;;4.93;3.83;;;37.30;46.50;;;;;;5042115;28;20456;-57
2022/07/31 10:16:04;;;;;;;3.90;3.50;;;37.40;45.60;;;;;;5038791;28;20458;-58
2022/07/31 10:18:34;;;;;;;3.43;3.10;;;37.40;46.00;;;;;;5045927;28;20428;-57
2022/07/31 10:21:04;;;;;;;4.80;3.53;;;37.40;45.80;;;;;;5040248;28;20472;-55
2022/07/31 10:23:33;;;;;;;4.47;4.07;;;36.90;46.50;;;;;;5051813;28;20520;-52
2022/07/31 10:26:01;;;;;;;4.63;4.23;;;36.50;47.20;;;;;;5047848;28;20451;-56
2022/07/31 10:28:29;;;;;;;7.83;4.20;;;36.50;47.50;;;;;;5048597;28;20474;-53
2022/07/31 10:30:56;;;;;;;4.73;4.10;;;36.50;47.00;;;;;;5049445;28;20443;-53
2022/07/31 10:33:25;;;;;;;5.63;4.00;;;36.60;47.20;;;;;;5049661;28;20448;-54
2022/07/31 10:35:58;;;;;;;6.33;4.10;;;36.70;47.60;;;;;;5050072;28;20417;-56
2022/07/31 10:38:30;;;;;;;4.53;4.13;;;36.60;46.90;;;;;;5050063;28;20447;-51
2022/07/31 10:41:05;;;;;;;7.40;4.77;;;36.00;47.50;;;;;;5046197;28;20474;-54
2022/07/31 10:43:41;;;;;;;4.00;3.60;;;35.60;48.20;;;;;;5042083;28;20547;-57
2022/07/31 10:46:08;;;;;;;4.00;3.70;;;35.40;48.50;;;;;;5042830;28;20550;-57
2022/07/31 10:48:35;;;;;;;4.37;3.60;;;35.30;48.30;;;;;;5042394;28;20471;-57
2022/07/31 10:51:03;;;;;;;4.47;3.90;;;35.30;48.40;;;;;;5041872;28;20472;-58
2022/07/31 10:53:31;;;;;;;3.63;3.33;;;35.10;48.50;;;;;;5040122;28;20428;-52
2022/07/31 10:56:02;;;;;;;4.53;4.10;;;34.70;49.10;;;;;;5040830;28;20455;-58
2022/07/31 10:58:29;;;;;;;4.00;3.70;;;34.40;49.40;;;;;;5043338;28;20520;-56
2022/07/31 11:01:07;;;;;;;4.80;4.40;;;34.40;50.10;;;;;;5038269;28;20440;-57
2022/07/31 11:03:45;;;;;;;4.13;3.83;;;34.00;50.40;;;;;;5042630;28;20468;-53
2022/07/31 11:06:14;;;;;;;3.67;3.37;;;33.20;50.90;;;;;;5041820;28;20861;-53
2022/07/31 11:08:43;;;;;;;4.43;4.03;;;32.50;52.40;;;;;;5042283;28;20479;-58
2022/07/31 11:11:13;;;;;;;5.50;3.27;;;32.30;52.20;;;;;;5041514;28;20436;-56
2022/07/31 11:13:48;;;;;;;10.53;4.77;;;32.00;52.80;;;;;;5040929;28;20434;-54
2022/07/31 11:16:16;;;;;;;4.10;3.70;;;31.90;52.40;;;;;;5044556;28;20556;-56
2022/07/31 11:18:45;;;;;;;5.67;3.70;;;32.00;53.20;;;;;;5040110;28;20432;-58
2022/07/31 11:21:12;;;;;;;3.60;3.30;;;32.20;52.60;;;;;;5042629;28;20478;-55
2022/07/31 11:23:40;;;;;;;4.13;3.70;;;32.30;52.00;;;;;;5039457;28;20548;-54
2022/07/31 11:26:09;;;;;;;9.43;4.07;;;32.30;51.90;;;;;;5042677;28;20531;-57
2022/07/31 11:28:36;;;;;;;4.30;3.50;;;32.30;51.90;;;;;;5047272;28;20444;-59
2022/07/31 11:31:05;;;;;;;5.13;3.53;;;32.30;51.10;;;;;;5045134;28;20898;-56
2022/07/31 11:33:35;;;;;;;5.00;3.77;;;32.10;51.10;;;;;;5037777;28;20455;-56
2022/07/31 11:36:10;;;;;;;5.70;4.20;;;31.40;51.90;;;;;;5038709;28;20455;-61
2022/07/31 11:38:38;;;;;;;4.53;4.13;;;30.80;53.90;;;;;;5039350;28;20540;-52
2022/07/31 11:41:05;;;;;;;5.07;4.60;;;30.50;55.20;;;;;;5042390;28;20488;-56
2022/07/31 11:43:36;;;;;;;4.13;3.70;;;30.30;56.00;;;;;;5040741;28;20501;-51
2022/07/31 11:46:05;;;;;;;4.43;4.03;;;30.30;56.70;;;;;;5037687;28;20876;-59
2022/07/31 11:48:32;;;;;;;4.07;3.67;;;30.20;56.70;;;;;;5043905;28;20460;-57
2022/07/31 11:50:59;;;;;;;6.07;3.80;;;30.10;56.50;;;;;;5039186;28;20472;-55
2022/07/31 11:53:27;;;;;;;3.63;3.30;;;30.00;55.90;;;;;;5037130;28;20452;-57
2022/07/31 11:55:56;;;;;;;6.40;4.00;;;29.90;56.20;;;;;;5039173;28;20476;-57
2022/07/31 11:58:24;;;;;;;4.70;3.90;;;29.80;56.50;;;;;;5039514;28;20456;-58
2022/07/31 12:00:54;;;;;;;4.20;3.80;;;29.80;56.60;;;;;;5044409;28;21024;-52
2022/07/31 12:03:22;;;;;;;3.60;3.30;;;29.90;56.90;;;;;;5039661;28;20436;-54
2022/07/31 12:05:51;;;;;;;4.43;4.00;;;30.00;56.00;;;;;;5036039;28;20791;-53
2022/07/31 12:08:19;;;;;;;5.60;4.10;;;30.10;56.10;;;;;;5043292;28;20448;-57
2022/07/31 12:10:47;;;;;;;5.07;4.17;;;30.00;55.70;;;;;;5043868;28;20516;-51
2022/07/31 12:13:15;;;;;;;6.20;3.77;;;30.00;55.50;;;;;;5041309;28;20461;-56
2022/07/31 12:15:56;;;;;;;5.63;4.37;;;29.90;56.80;;;;;;5042859;28;20452;-55
2022/07/31 12:18:23;;;;;;;4.03;3.63;;;29.90;56.60;;;;;;5040699;28;20456;-54
2022/07/31 12:20:55;;;;;;;5.90;4.03;;;30.00;56.40;;;;;;5040261;28;20455;-54
2022/07/31 12:23:22;;;;;;;3.70;3.40;;;30.10;56.20;;;;;;5042784;28;20472;-54
2022/07/31 12:25:49;;;;;;;4.33;3.90;;;30.10;56.10;;;;;;5036455;28;20451;-56
2022/07/31 12:28:18;;;;;;;5.80;4.20;;;30.20;56.50;;;;;;5039476;28;20482;-53
2022/07/31 12:30:46;;;;;;;4.63;4.23;;;30.20;56.40;;;;;;5041707;28;20511;-53
2022/07/31 12:33:14;;;;;;;4.70;4.30;;;30.00;56.40;;;;;;5041107;28;20437;-57
2022/07/31 12:35:42;;;;;;;4.10;3.50;;;29.70;57.10;;;;;;5040686;28;20484;-52
2022/07/31 12:38:10;;;;;;;6.70;4.40;;;29.50;57.50;;;;;;5044880;28;20531;-48
2022/07/31 12:40:38;;;;;;;4.63;3.83;;;29.20;58.20;;;;;;5041460;28;20464;-55
2022/07/31 12:43:05;;;;;;;8.30;4.50;;;29.00;58.70;;;;;;5041796;28;20468;-55
2022/07/31 12:45:34;;;;;;;5.60;4.80;;;28.80;59.70;;;;;;5043244;28;20546;-51
2022/07/31 12:48:01;;;;;;;6.33;4.97;;;28.50;60.60;;;;;;5039844;28;20460;-50
2022/07/31 12:50:31;;;;;;;5.77;4.63;;;28.30;60.90;;;;;;5036271;28;20518;-59
2022/07/31 12:53:00;;;;;;;4.60;4.20;;;28.10;61.40;;;;;;5039930;28;21620;-56
2022/07/31 12:55:29;;;;;;;5.03;4.53;;;28.00;62.00;;;;;;5040245;28;20543;-53
2022/07/31 12:57:56;;;;;;;5.37;4.03;;;27.90;61.70;;;;;;5042145;28;20507;-53